Topsail Beach, North Carolina
Current Conditions -  °F | °C
As of 4:56 AM on Thursday 18 Dec 2014 (Local Time) from KNCA Reporting Station
Clear Clear  
Wind Chill:   Ceiling: Unl
Heat Index:   Visibility: 10mi
Dew Point:   Wind: 8mph
Humidity: 79%   Direction: 340°NNW
Pressure: 30.11"   Gusts: NA
Location:  34.4895°N, 77.514°W
Report Text: KNCA 180956Z AUTO 34007KT 10SM CLR 05/02 A3011 RMK AO2 SLP197 T00500017
Loading
Personal Weather Stations






























Interactive Weather Map New forecast layout! Learn more

10-Day Weather Forecast

Advertisements
Track Severe Weather on mobile